createdAt,value
2022-08-25T00:04:36.674Z,19.62
2022-08-25T00:10:40.047Z,19.55
2022-08-25T00:16:43.412Z,19.41
2022-08-25T00:22:45.403Z,19.42
2022-08-25T00:28:47.365Z,19.25
2022-08-25T00:34:49.412Z,19.20
2022-08-25T00:41:05.842Z,19.13
2022-08-25T00:47:09.922Z,18.93
2022-08-25T00:53:12.297Z,18.66
2022-08-25T00:59:16.423Z,18.41
2022-08-25T01:05:19.633Z,18.45
2022-08-25T01:11:21.818Z,18.18
2022-08-25T01:17:27.844Z,18.07
2022-08-25T01:23:30.144Z,18.15
2022-08-25T01:29:33.080Z,18.07
2022-08-25T01:35:36.455Z,18.13
2022-08-25T01:42:11.656Z,18.18
2022-08-25T01:48:15.422Z,18.29
2022-08-25T01:54:17.750Z,18.34
2022-08-25T02:00:21.315Z,18.44
2022-08-25T02:06:32.482Z,18.23
2022-08-25T02:12:36.740Z,18.28
2022-08-25T02:18:38.695Z,18.25
2022-08-25T02:24:40.663Z,18.32
2022-08-25T02:30:43.571Z,17.97
2022-08-25T02:36:45.681Z,18.08
2022-08-25T02:42:49.905Z,17.99
2022-08-25T02:48:53.305Z,18.06
2022-08-25T02:54:55.543Z,18.08
2022-08-25T03:00:57.777Z,18.03
2022-08-25T03:06:59.982Z,17.87
2022-08-25T03:13:02.007Z,17.85
2022-08-25T03:19:04.944Z,17.87
2022-08-25T03:25:28.010Z,17.96
2022-08-25T03:31:30.014Z,17.70
2022-08-25T03:37:32.101Z,17.36
2022-08-25T03:43:34.081Z,17.37
2022-08-25T03:49:36.049Z,17.54
2022-08-25T03:55:38.049Z,17.43
2022-08-25T04:01:43.050Z,17.21
2022-08-25T04:07:45.036Z,17.27
2022-08-25T04:13:48.137Z,17.15
2022-08-25T04:19:50.750Z,16.91
2022-08-25T04:25:53.030Z,16.97
2022-08-25T04:31:55.812Z,16.94
2022-08-25T04:37:57.947Z,16.97
2022-08-25T04:44:01.306Z,17.06
2022-08-25T04:50:03.787Z,17.08
2022-08-25T04:56:09.697Z,17.02
2022-08-25T05:02:11.634Z,17.21
2022-08-25T05:08:13.778Z,17.42
2022-08-25T05:14:21.649Z,17.60
2022-08-25T05:20:27.720Z,17.79
2022-08-25T05:26:32.466Z,17.94
2022-08-25T05:32:34.452Z,18.23
2022-08-25T05:38:37.818Z,18.56
2022-08-25T05:44:42.919Z,18.78
2022-08-25T05:50:55.885Z,19.03
2022-08-25T05:56:58.606Z,19.38
2022-08-25T06:03:01.162Z,19.43
2022-08-25T06:09:06.493Z,19.62
2022-08-25T06:15:09.606Z,20.00
2022-08-25T06:21:14.520Z,20.29
2022-08-25T06:27:16.627Z,20.64
2022-08-25T06:33:18.961Z,21.16
2022-08-25T06:39:21.765Z,21.17
2022-08-25T06:45:24.892Z,21.70
2022-08-25T06:51:27.572Z,22.64
2022-08-25T06:57:29.712Z,26.20
2022-08-25T07:03:33.217Z,29.34
2022-08-25T07:09:38.670Z,27.94
2022-08-25T07:15:43.818Z,26.59
2022-08-25T07:21:49.893Z,26.20
2022-08-25T07:27:56.983Z,24.98
2022-08-25T07:34:19.536Z,25.19
2022-08-25T07:40:32.361Z,25.05
2022-08-25T07:46:34.953Z,25.10
2022-08-25T07:52:37.119Z,25.54
2022-08-25T07:58:42.199Z,25.95
2022-08-25T08:04:45.387Z,26.29
2022-08-25T08:11:03.161Z,26.63
2022-08-25T08:17:09.485Z,27.46
2022-08-25T08:23:12.473Z,27.70
2022-08-25T08:29:15.068Z,28.52
2022-08-25T08:35:18.979Z,28.64
2022-08-25T08:42:17.344Z,28.22
2022-08-25T08:48:46.992Z,28.56
2022-08-25T08:54:56.872Z,28.38
2022-08-25T09:00:59.581Z,28.74
2022-08-25T09:07:11.035Z,29.00
2022-08-25T09:13:48.792Z,29.37
2022-08-25T09:20:29.430Z,30.46
2022-08-25T09:26:58.928Z,31.39
2022-08-25T09:33:05.255Z,32.51
2022-08-25T09:39:07.969Z,32.57
2022-08-25T09:45:14.845Z,33.19
2022-08-25T09:51:38.190Z,31.69
2022-08-25T09:57:52.939Z,30.35
2022-08-25T10:04:05.546Z,30.17
2022-08-25T10:10:41.979Z,29.99
2022-08-25T10:16:46.944Z,29.72
2022-08-25T10:22:51.380Z,29.36
2022-08-25T10:29:06.304Z,29.57
2022-08-25T10:35:32.418Z,29.64
2022-08-25T10:41:53.436Z,29.30
2022-08-25T10:48:41.894Z,29.82
2022-08-25T10:54:57.571Z,30.47
2022-08-25T11:01:18.855Z,30.63
2022-08-25T11:07:40.484Z,33.50
2022-08-25T11:14:09.194Z,36.05
2022-08-25T11:20:27.132Z,37.91
2022-08-25T11:26:36.856Z,38.53
2022-08-25T11:32:44.308Z,37.01
2022-08-25T11:39:11.565Z,36.13
2022-08-25T11:45:19.191Z,37.62
2022-08-25T11:51:45.128Z,37.99
2022-08-25T11:57:53.641Z,39.35
2022-08-25T12:04:34.111Z,40.84
2022-08-25T12:11:11.161Z,40.67
2022-08-25T12:17:25.410Z,41.74
2022-08-25T12:23:36.645Z,42.23
2022-08-25T12:29:47.215Z,42.55
2022-08-25T12:35:57.939Z,42.79
2022-08-25T12:42:12.768Z,42.55
2022-08-25T12:48:27.008Z,42.54
2022-08-25T12:55:11.485Z,43.68
2022-08-25T13:01:54.578Z,42.77
2022-08-25T13:08:15.954Z,44.05
2022-08-25T13:14:34.771Z,45.07
2022-08-25T13:20:40.308Z,45.32
2022-08-25T13:26:52.730Z,44.26
2022-08-25T13:32:54.858Z,45.13
2022-08-25T13:39:45.546Z,44.35
2022-08-25T13:45:50.543Z,44.55
2022-08-25T13:51:55.137Z,42.75
2022-08-25T13:57:59.335Z,42.29
2022-08-25T14:04:50.887Z,40.23
2022-08-25T14:11:14.897Z,38.31
2022-08-25T14:17:36.314Z,36.29
2022-08-25T14:23:40.772Z,35.10
2022-08-25T14:29:42.759Z,37.21
2022-08-25T14:35:53.747Z,40.04
2022-08-25T14:41:55.987Z,42.37
2022-08-25T14:48:10.418Z,41.61
2022-08-25T14:54:18.442Z,41.77
2022-08-25T15:00:21.247Z,41.90
2022-08-25T15:06:29.365Z,42.25
2022-08-25T15:12:46.526Z,40.05
2022-08-25T15:18:50.376Z,40.91
2022-08-25T15:24:52.786Z,41.50
2022-08-25T15:30:54.783Z,40.00
2022-08-25T15:36:58.469Z,39.34
2022-08-25T15:43:01.617Z,39.67
2022-08-25T15:49:05.324Z,39.86
2022-08-25T15:55:11.619Z,39.77
2022-08-25T16:01:19.711Z,40.20
2022-08-25T16:07:21.871Z,40.25
2022-08-25T16:13:24.532Z,39.47
2022-08-25T16:19:29.348Z,38.71
2022-08-25T16:25:32.342Z,37.23
2022-08-25T16:31:34.593Z,37.72
2022-08-25T16:37:36.795Z,37.62
2022-08-25T16:43:39.645Z,38.28
2022-08-25T16:49:42.377Z,37.18
2022-08-25T16:55:45.427Z,35.45
2022-08-25T17:01:47.528Z,35.82
2022-08-25T17:08:09.480Z,36.22
2022-08-25T17:14:18.169Z,36.37
2022-08-25T17:20:20.861Z,36.63
2022-08-25T17:26:27.995Z,36.44
2022-08-25T17:32:31.000Z,35.86
2022-08-25T17:38:33.778Z,34.89
2022-08-25T17:44:35.744Z,33.58
2022-08-25T17:50:40.661Z,32.36
2022-08-25T17:56:42.714Z,31.32
2022-08-25T18:02:45.326Z,30.52
2022-08-25T18:08:51.266Z,29.79
2022-08-25T18:14:54.996Z,29.18
2022-08-25T18:20:57.150Z,28.51
2022-08-25T18:26:59.350Z,28.06
2022-08-25T18:33:01.897Z,27.35
2022-08-25T18:39:23.597Z,27.04
2022-08-25T18:45:48.015Z,26.62
2022-08-25T18:51:50.405Z,26.45
2022-08-25T18:57:52.617Z,26.27
2022-08-25T19:03:54.615Z,26.34
2022-08-25T19:09:56.660Z,26.37
2022-08-25T19:15:59.398Z,26.27
2022-08-25T19:22:01.592Z,26.21
2022-08-25T19:28:09.081Z,26.09
2022-08-25T19:34:21.712Z,25.97
2022-08-25T19:40:25.341Z,26.19
2022-08-25T19:46:37.383Z,25.94
2022-08-25T19:52:40.280Z,26.10
2022-08-25T19:58:44.597Z,25.91
2022-08-25T20:04:50.331Z,25.97
2022-08-25T20:10:53.042Z,25.70
2022-08-25T20:16:58.734Z,25.58
2022-08-25T20:23:19.553Z,25.45
2022-08-25T20:29:21.627Z,25.30
2022-08-25T20:35:28.167Z,25.27
2022-08-25T20:41:30.148Z,25.27
2022-08-25T20:47:32.332Z,25.72
2022-08-25T20:53:37.194Z,25.69
2022-08-25T20:59:39.188Z,25.81
2022-08-25T21:05:43.262Z,25.61
2022-08-25T21:11:46.848Z,25.72
2022-08-25T21:17:54.478Z,25.55
2022-08-25T21:23:56.725Z,25.61
2022-08-25T21:29:59.808Z,25.36
2022-08-25T21:36:02.057Z,25.33
2022-08-25T21:42:07.161Z,25.28
2022-08-25T21:48:10.758Z,25.19
2022-08-25T21:54:18.226Z,25.16
2022-08-25T22:00:26.135Z,25.15
2022-08-25T22:06:29.465Z,24.97
2022-08-25T22:12:31.446Z,25.03
2022-08-25T22:18:33.468Z,24.91
2022-08-25T22:24:35.630Z,24.78
2022-08-25T22:30:38.776Z,24.75
2022-08-25T22:36:42.903Z,24.51
2022-08-25T22:42:48.050Z,24.27
2022-08-25T22:48:51.656Z,24.31
2022-08-25T22:54:54.583Z,24.50
2022-08-25T23:00:58.382Z,24.40
2022-08-25T23:07:00.485Z,24.26
2022-08-25T23:13:02.493Z,24.28
2022-08-25T23:19:13.753Z,24.20
2022-08-25T23:25:17.117Z,24.19
2022-08-25T23:31:20.173Z,24.02
2022-08-25T23:37:23.123Z,23.84
2022-08-25T23:43:25.731Z,23.74
2022-08-25T23:49:27.732Z,23.78
2022-08-25T23:55:34.014Z,23.63
